»·PEaware :: N313WD KAUN-KBOK

N313WD :: KAUN-KBOK

FLIGHT INFORMATION

Flight Status: Arrived
Operator: Privately registered:
United States
More flights under this callsign
Pilot: Drew L. (13237)
Aircraft: CESSNA 340
(C340)
More flights by this aircraft type
Origin: KAUN Auburn Mun
United States
Destination: KBOK Brookings State
United States
More flights between these airports :: More routes between these airports
Route: +RBL CEC
File this flight plan on PilotEdge
Remarks: ROGER
Altitude:
(Current/Filed)
20,000ft
Speed:
(Current/Filed)
0kts
Departed: 14-Oct-18 11:34 AM
Arrived: 14-Oct-18 01:03 PM
Distance/Time
Traveled:
238nm/1:29
Distance/Time
To Go:
Arrived

Flight Plot

Page will automatically refresh every two minutes.

Flight plan parsing failed; only flown route is shown


Map Options




Map Legend


Flown Route
Filed Route
Departure Airport
Arrival Airport
Navaid (VOR, NDB)
Fix

Horizontal Profiles

Position Reports

Time Latitude Longitude Heading Altitude Ground
Speed
14-Oct-18 11:34 38.954837 -121.076092 83 1513ft 9kts
14-Oct-18 11:35 38.955293 -121.075942 264 1513ft 0kts
14-Oct-18 11:36 38.952882 -121.100773 262 2292ft 100kts
14-Oct-18 11:37 38.975180 -121.117014 8 3816ft 120kts
14-Oct-18 11:38 39.004389 -121.108479 9 5388ft 105kts
14-Oct-18 11:39 39.036829 -121.097489 9 7014ft 106kts
14-Oct-18 11:40 39.060506 -121.090190 353 8171ft 103kts
14-Oct-18 11:41 39.083049 -121.110972 333 9500ft 103kts
14-Oct-18 11:42 39.109534 -121.138809 328 10516ft 132kts
14-Oct-18 11:43 39.137395 -121.166936 341 11832ft 122kts
14-Oct-18 11:44 39.167609 -121.185192 342 13149ft 124kts
14-Oct-18 11:45 39.199222 -121.203537 342 14635ft 125kts
14-Oct-18 11:46 39.230444 -121.223174 335 16097ft 127kts
14-Oct-18 11:47 39.260255 -121.246755 335 17480ft 125kts
14-Oct-18 11:48 39.286509 -121.275932 313 18733ft 131kts
14-Oct-18 11:49 39.306503 -121.315269 312 19762ft 138kts
14-Oct-18 11:50 39.330567 -121.360268 312 20053ft 173kts
14-Oct-18 11:51 39.360764 -121.413894 312 20023ft 191kts
14-Oct-18 11:52 39.392553 -121.469276 320 20013ft 190kts
14-Oct-18 11:53 39.436857 -121.502365 332 20039ft 185kts
14-Oct-18 11:54 39.478158 -121.542908 325 20053ft 187kts
14-Oct-18 11:55 39.517856 -121.586709 325 20061ft 188kts
14-Oct-18 11:56 39.557519 -121.630667 325 20062ft 188kts
14-Oct-18 11:57 39.603575 -121.681718 324 20061ft 188kts
14-Oct-18 11:58 39.636620 -121.718390 324 20062ft 188kts
14-Oct-18 11:59 39.676333 -121.762538 324 20063ft 188kts
14-Oct-18 12:00 39.715739 -121.806395 324 20065ft 188kts
14-Oct-18 12:01 39.755444 -121.850663 324 20067ft 187kts
14-Oct-18 12:02 39.794931 -121.894765 324 20068ft 187kts
14-Oct-18 12:03 39.840868 -121.946151 324 20069ft 187kts
14-Oct-18 12:04 39.873798 -121.983049 324 20071ft 187kts
14-Oct-18 12:05 39.913280 -122.027351 324 20078ft 187kts
14-Oct-18 12:06 39.959191 -122.078958 324 20093ft 187kts
14-Oct-18 12:07 39.991897 -122.115768 324 20107ft 187kts
14-Oct-18 12:08 40.031135 -122.160010 324 20121ft 187kts
14-Oct-18 12:09 40.070571 -122.204533 324 20122ft 187kts
14-Oct-18 12:10 40.109630 -122.248790 324 20128ft 187kts
14-Oct-18 12:11 40.148797 -122.293991 324 20128ft 189kts
14-Oct-18 12:12 40.188102 -122.339379 324 20127ft 189kts
14-Oct-18 12:13 40.227506 -122.384977 324 20124ft 189kts
14-Oct-18 12:14 40.266969 -122.430680 324 20121ft 189kts
14-Oct-18 12:15 40.306308 -122.476311 324 20119ft 189kts
14-Oct-18 12:16 40.345604 -122.521959 324 20118ft 189kts
14-Oct-18 12:17 40.384806 -122.567590 324 20118ft 189kts
14-Oct-18 12:18 40.424017 -122.613289 324 20117ft 189kts
14-Oct-18 12:19 40.463076 -122.658896 323 20117ft 189kts
14-Oct-18 12:20 40.502270 -122.704727 323 20116ft 189kts
14-Oct-18 12:21 40.541487 -122.750663 323 20116ft 189kts
14-Oct-18 12:22 40.580567 -122.796511 323 20116ft 188kts
14-Oct-18 12:23 40.619626 -122.842411 323 20116ft 188kts
14-Oct-18 12:24 40.658704 -122.888417 323 20115ft 188kts
14-Oct-18 12:25 40.697835 -122.934557 323 20115ft 189kts
14-Oct-18 12:26 40.737229 -122.981065 323 20115ft 191kts
14-Oct-18 12:27 40.776838 -123.027912 323 20115ft 192kts
14-Oct-18 12:28 40.816863 -123.075337 323 20115ft 194kts
14-Oct-18 12:29 40.857045 -123.123037 323 20115ft 195kts
14-Oct-18 12:30 40.897623 -123.171258 323 20103ft 196kts
14-Oct-18 12:31 40.938243 -123.219665 323 20090ft 197kts
14-Oct-18 12:32 40.978846 -123.268160 323 20083ft 196kts
14-Oct-18 12:33 41.019233 -123.316437 323 20077ft 197kts
14-Oct-18 12:34 41.059782 -123.364971 324 20052ft 197kts
14-Oct-18 12:35 41.099931 -123.413137 324 20050ft 197kts
14-Oct-18 12:36 41.140195 -123.461486 324 20056ft 198kts
14-Oct-18 12:37 41.180983 -123.510568 324 20036ft 200kts
14-Oct-18 12:38 41.224207 -123.562207 323 18778ft 208kts
14-Oct-18 12:39 41.266667 -123.613814 323 17629ft 207kts
14-Oct-18 12:40 41.309110 -123.665194 322 16512ft 207kts
14-Oct-18 12:41 41.352087 -123.717178 322 15172ft 217kts
14-Oct-18 12:42 41.397399 -123.772003 321 13425ft 218kts
14-Oct-18 12:43 41.440341 -123.824572 321 11670ft 203kts
14-Oct-18 12:44 41.481815 -123.875180 320 9930ft 203kts
14-Oct-18 12:45 41.517209 -123.919215 321 9988ft 163kts
14-Oct-18 12:46 41.554015 -123.963292 321 9439ft 187kts
14-Oct-18 12:47 41.592813 -124.010782 319 8519ft 191kts
14-Oct-18 12:48 41.631837 -124.058817 318 7629ft 190kts
14-Oct-18 12:49 41.670654 -124.106551 317 6764ft 189kts
14-Oct-18 12:50 41.709070 -124.153863 317 6018ft 181kts
14-Oct-18 12:51 41.740124 -124.192415 317 6143ft 138kts
14-Oct-18 12:52 41.767481 -124.226149 316 6147ft 130kts
14-Oct-18 12:53 41.798534 -124.244027 349 6149ft 121kts
14-Oct-18 12:54 41.830543 -124.249413 350 6149ft 112kts
14-Oct-18 12:55 41.861666 -124.254659 351 6159ft 120kts
14-Oct-18 12:56 41.899373 -124.260721 353 5421ft 168kts
14-Oct-18 12:57 41.948016 -124.268597 352 3985ft 180kts
14-Oct-18 12:58 41.997558 -124.276944 353 2589ft 180kts
14-Oct-18 12:59 42.043459 -124.284570 354 1444ft 119kts
14-Oct-18 13:00 42.069576 -124.299608 314 953ft 96kts
14-Oct-18 13:01 42.070304 -124.285420 165 979ft 105kts
14-Oct-18 13:02 42.064526 -124.313565 302 2106ft 105kts
14-Oct-18 13:03 42.085528 -124.311188 78 1200ft 96kts
14-Oct-18 13:04 42.072720 -124.288634 143 462ft 50kts
14-Oct-18 13:05 42.073896 -124.289112 325 462ft 6kts
14-Oct-18 13:06 42.074049 -124.289036 59 462ft 0kts

Navigation Log

Ident Type
Flight plan parsing failed, navigation log unavailable